sensor_id;sensor_type;location;lat;lon;timestamp;P1;durP1;ratioP1;P2;durP2;ratioP2
24813;SDS011;12904;50.088;11.414;2023-07-08T00:01:07;8.52;;;5.32;;
24813;SDS011;12904;50.088;11.414;2023-07-08T00:03:38;5.50;;;4.90;;
24813;SDS011;12904;50.088;11.414;2023-07-08T00:06:04;7.90;;;5.25;;
24813;SDS011;12904;50.088;11.414;2023-07-08T00:08:32;7.82;;;5.50;;
24813;SDS011;12904;50.088;11.414;2023-07-08T00:10:58;8.93;;;5.75;;
24813;SDS011;12904;50.088;11.414;2023-07-08T00:13:24;5.30;;;4.30;;
24813;SDS011;12904;50.088;11.414;2023-07-08T00:15:49;5.50;;;5.00;;
24813;SDS011;12904;50.088;11.414;2023-07-08T00:18:16;4.70;;;4.30;;
24813;SDS011;12904;50.088;11.414;2023-07-08T00:20:47;8.40;;;5.18;;
24813;SDS011;12904;50.088;11.414;2023-07-08T00:23:13;6.20;;;4.68;;
24813;SDS011;12904;50.088;11.414;2023-07-08T00:25:39;6.32;;;4.75;;
24813;SDS011;12904;50.088;11.414;2023-07-08T00:28:09;6.70;;;5.93;;
24813;SDS011;12904;50.088;11.414;2023-07-08T00:30:35;7.20;;;5.25;;
24813;SDS011;12904;50.088;11.414;2023-07-08T00:33:00;5.88;;;4.95;;
24813;SDS011;12904;50.088;11.414;2023-07-08T00:35:36;6.13;;;5.53;;
24813;SDS011;12904;50.088;11.414;2023-07-08T00:38:04;6.22;;;5.30;;
24813;SDS011;12904;50.088;11.414;2023-07-08T00:51:39;6.35;;;5.75;;
24813;SDS011;12904;50.088;11.414;2023-07-08T00:54:05;6.18;;;5.07;;
24813;SDS011;12904;50.088;11.414;2023-07-08T00:56:37;6.05;;;5.45;;
24813;SDS011;12904;50.088;11.414;2023-07-08T00:59:11;13.88;;;5.90;;
24813;SDS011;12904;50.088;11.414;2023-07-08T01:01:59;7.20;;;4.70;;
24813;SDS011;12904;50.088;11.414;2023-07-08T01:04:29;5.85;;;5.25;;
24813;SDS011;12904;50.088;11.414;2023-07-08T01:06:59;6.22;;;5.43;;
24813;SDS011;12904;50.088;11.414;2023-07-08T01:09:32;7.72;;;5.82;;
24813;SDS011;12904;50.088;11.414;2023-07-08T01:12:02;5.65;;;5.15;;
24813;SDS011;12904;50.088;11.414;2023-07-08T01:14:32;6.35;;;5.75;;
24813;SDS011;12904;50.088;11.414;2023-07-08T01:17:00;6.95;;;5.28;;
24813;SDS011;12904;50.088;11.414;2023-07-08T01:19:27;5.63;;;5.10;;
24813;SDS011;12904;50.088;11.414;2023-07-08T01:22:00;5.63;;;5.13;;
24813;SDS011;12904;50.088;11.414;2023-07-08T01:24:30;5.57;;;5.07;;
24813;SDS011;12904;50.088;11.414;2023-07-08T01:26:57;6.13;;;5.53;;
24813;SDS011;12904;50.088;11.414;2023-07-08T01:29:25;7.45;;;5.68;;
24813;SDS011;12904;50.088;11.414;2023-07-08T01:31:50;12.30;;;5.65;;
24813;SDS011;12904;50.088;11.414;2023-07-08T01:34:16;6.47;;;5.93;;
24813;SDS011;12904;50.088;11.414;2023-07-08T01:36:44;6.53;;;5.70;;
24813;SDS011;12904;50.088;11.414;2023-07-08T01:39:22;17.35;;;5.93;;
24813;SDS011;12904;50.088;11.414;2023-07-08T01:41:48;6.93;;;5.72;;
24813;SDS011;12904;50.088;11.414;2023-07-08T01:44:27;6.97;;;5.90;;
24813;SDS011;12904;50.088;11.414;2023-07-08T01:46:54;10.18;;;5.65;;
24813;SDS011;12904;50.088;11.414;2023-07-08T01:49:22;5.70;;;5.10;;
24813;SDS011;12904;50.088;11.414;2023-07-08T01:51:49;6.28;;;5.70;;
24813;SDS011;12904;50.088;11.414;2023-07-08T01:54:15;6.30;;;5.70;;
24813;SDS011;12904;50.088;11.414;2023-07-08T01:56:41;6.60;;;6.00;;
24813;SDS011;12904;50.088;11.414;2023-07-08T01:59:07;6.85;;;5.65;;
24813;SDS011;12904;50.088;11.414;2023-07-08T02:01:32;7.50;;;5.75;;
24813;SDS011;12904;50.088;11.414;2023-07-08T02:03:58;5.85;;;5.20;;
24813;SDS011;12904;50.088;11.414;2023-07-08T02:06:24;6.50;;;5.55;;
24813;SDS011;12904;50.088;11.414;2023-07-08T02:08:49;7.28;;;6.18;;
24813;SDS011;12904;50.088;11.414;2023-07-08T02:11:16;6.97;;;6.10;;
24813;SDS011;12904;50.088;11.414;2023-07-08T02:13:42;6.22;;;5.70;;
24813;SDS011;12904;50.088;11.414;2023-07-08T02:16:07;8.88;;;6.22;;
24813;SDS011;12904;50.088;11.414;2023-07-08T02:18:33;6.13;;;5.35;;
24813;SDS011;12904;50.088;11.414;2023-07-08T02:20:59;8.05;;;5.53;;
24813;SDS011;12904;50.088;11.414;2023-07-08T02:23:25;6.93;;;5.95;;
24813;SDS011;12904;50.088;11.414;2023-07-08T02:25:54;10.20;;;5.75;;
24813;SDS011;12904;50.088;11.414;2023-07-08T02:28:21;7.28;;;6.63;;
24813;SDS011;12904;50.088;11.414;2023-07-08T02:30:47;7.30;;;6.68;;
24813;SDS011;12904;50.088;11.414;2023-07-08T02:33:13;6.60;;;6.00;;
24813;SDS011;12904;50.088;11.414;2023-07-08T02:35:39;6.28;;;5.45;;
24813;SDS011;12904;50.088;11.414;2023-07-08T02:38:05;5.82;;;5.38;;
24813;SDS011;12904;50.088;11.414;2023-07-08T02:40:31;7.45;;;6.68;;
24813;SDS011;12904;50.088;11.414;2023-07-08T02:42:56;7.15;;;6.32;;
24813;SDS011;12904;50.088;11.414;2023-07-08T02:45:22;7.32;;;6.57;;
24813;SDS011;12904;50.088;11.414;2023-07-08T02:47:48;6.95;;;6.25;;
24813;SDS011;12904;50.088;11.414;2023-07-08T02:50:13;7.25;;;6.53;;
24813;SDS011;12904;50.088;11.414;2023-07-08T02:52:39;7.00;;;6.35;;
24813;SDS011;12904;50.088;11.414;2023-07-08T02:55:05;7.68;;;6.93;;
24813;SDS011;12904;50.088;11.414;2023-07-08T02:57:31;7.03;;;6.32;;
24813;SDS011;12904;50.088;11.414;2023-07-08T02:59:56;6.90;;;6.30;;
24813;SDS011;12904;50.088;11.414;2023-07-08T03:02:22;7.55;;;6.07;;
24813;SDS011;12904;50.088;11.414;2023-07-08T03:04:48;6.93;;;6.22;;
24813;SDS011;12904;50.088;11.414;2023-07-08T03:07:15;7.10;;;6.47;;
24813;SDS011;12904;50.088;11.414;2023-07-08T03:09:41;7.40;;;6.70;;
24813;SDS011;12904;50.088;11.414;2023-07-08T03:12:07;6.90;;;6.20;;
24813;SDS011;12904;50.088;11.414;2023-07-08T03:14:34;8.07;;;7.13;;
24813;SDS011;12904;50.088;11.414;2023-07-08T03:17:01;7.00;;;6.05;;
24813;SDS011;12904;50.088;11.414;2023-07-08T03:19:27;6.78;;;6.18;;
24813;SDS011;12904;50.088;11.414;2023-07-08T03:21:52;6.55;;;6.03;;
24813;SDS011;12904;50.088;11.414;2023-07-08T03:24:18;6.03;;;5.47;;
24813;SDS011;12904;50.088;11.414;2023-07-08T03:26:44;6.93;;;6.32;;
24813;SDS011;12904;50.088;11.414;2023-07-08T03:29:17;8.38;;;6.82;;
24813;SDS011;12904;50.088;11.414;2023-07-08T03:31:43;7.15;;;6.45;;
24813;SDS011;12904;50.088;11.414;2023-07-08T03:34:10;8.10;;;6.82;;
24813;SDS011;12904;50.088;11.414;2023-07-08T03:36:44;7.43;;;6.72;;
24813;SDS011;12904;50.088;11.414;2023-07-08T03:39:18;6.72;;;6.13;;
24813;SDS011;12904;50.088;11.414;2023-07-08T03:41:45;10.50;;;7.00;;
24813;SDS011;12904;50.088;11.414;2023-07-08T03:44:11;7.95;;;7.15;;
24813;SDS011;12904;50.088;11.414;2023-07-08T03:46:37;7.90;;;7.07;;
24813;SDS011;12904;50.088;11.414;2023-07-08T03:49:04;7.93;;;7.00;;
24813;SDS011;12904;50.088;11.414;2023-07-08T03:51:33;7.82;;;7.03;;
24813;SDS011;12904;50.088;11.414;2023-07-08T03:54:00;6.78;;;6.22;;
24813;SDS011;12904;50.088;11.414;2023-07-08T03:56:26;7.07;;;6.47;;
24813;SDS011;12904;50.088;11.414;2023-07-08T03:58:52;6.65;;;6.05;;
24813;SDS011;12904;50.088;11.414;2023-07-08T04:01:18;8.90;;;6.50;;
24813;SDS011;12904;50.088;11.414;2023-07-08T04:03:49;7.45;;;6.60;;
24813;SDS011;12904;50.088;11.414;2023-07-08T04:06:16;6.90;;;5.97;;
24813;SDS011;12904;50.088;11.414;2023-07-08T04:08:42;8.13;;;7.32;;
24813;SDS011;12904;50.088;11.414;2023-07-08T04:11:09;6.85;;;6.25;;
24813;SDS011;12904;50.088;11.414;2023-07-08T04:13:37;6.85;;;6.25;;
24813;SDS011;12904;50.088;11.414;2023-07-08T04:16:04;6.75;;;6.15;;
24813;SDS011;12904;50.088;11.414;2023-07-08T04:18:30;6.85;;;6.20;;
24813;SDS011;12904;50.088;11.414;2023-07-08T04:20:56;7.18;;;6.32;;
24813;SDS011;12904;50.088;11.414;2023-07-08T04:23:22;11.88;;;7.47;;
24813;SDS011;12904;50.088;11.414;2023-07-08T04:25:49;8.85;;;7.07;;
24813;SDS011;12904;50.088;11.414;2023-07-08T04:28:15;7.22;;;6.55;;
24813;SDS011;12904;50.088;11.414;2023-07-08T04:30:42;9.73;;;6.82;;
24813;SDS011;12904;50.088;11.414;2023-07-08T04:33:11;9.38;;;7.18;;
24813;SDS011;12904;50.088;11.414;2023-07-08T04:35:39;7.28;;;6.68;;
24813;SDS011;12904;50.088;11.414;2023-07-08T04:38:27;8.05;;;7.20;;
24813;SDS011;12904;50.088;11.414;2023-07-08T04:40:52;7.93;;;7.22;;
24813;SDS011;12904;50.088;11.414;2023-07-08T04:43:19;7.85;;;7.15;;
24813;SDS011;12904;50.088;11.414;2023-07-08T04:45:49;8.55;;;7.72;;
24813;SDS011;12904;50.088;11.414;2023-07-08T04:48:18;7.80;;;7.07;;
24813;SDS011;12904;50.088;11.414;2023-07-08T04:50:46;7.70;;;7.10;;
24813;SDS011;12904;50.088;11.414;2023-07-08T04:53:14;8.57;;;7.03;;
24813;SDS011;12904;50.088;11.414;2023-07-08T04:56:01;8.32;;;7.40;;
24813;SDS011;12904;50.088;11.414;2023-07-08T04:58:25;7.68;;;6.97;;
24813;SDS011;12904;50.088;11.414;2023-07-08T05:00:51;8.20;;;7.35;;
24813;SDS011;12904;50.088;11.414;2023-07-08T05:03:17;8.65;;;7.53;;
24813;SDS011;12904;50.088;11.414;2023-07-08T05:05:42;7.90;;;7.25;;
24813;SDS011;12904;50.088;11.414;2023-07-08T05:08:08;8.32;;;7.63;;
24813;SDS011;12904;50.088;11.414;2023-07-08T05:10:34;8.13;;;7.43;;
24813;SDS011;12904;50.088;11.414;2023-07-08T05:12:59;7.50;;;6.85;;
24813;SDS011;12904;50.088;11.414;2023-07-08T05:15:25;7.85;;;7.20;;
24813;SDS011;12904;50.088;11.414;2023-07-08T05:17:51;8.20;;;7.47;;
24813;SDS011;12904;50.088;11.414;2023-07-08T05:20:17;8.20;;;7.38;;
24813;SDS011;12904;50.088;11.414;2023-07-08T05:22:43;8.40;;;7.70;;
24813;SDS011;12904;50.088;11.414;2023-07-08T05:25:10;8.57;;;7.88;;
24813;SDS011;12904;50.088;11.414;2023-07-08T05:27:37;11.00;;;6.70;;
24813;SDS011;12904;50.088;11.414;2023-07-08T05:30:03;8.02;;;7.20;;
24813;SDS011;12904;50.088;11.414;2023-07-08T05:32:30;9.43;;;7.72;;
24813;SDS011;12904;50.088;11.414;2023-07-08T05:34:56;8.43;;;7.68;;
24813;SDS011;12904;50.088;11.414;2023-07-08T05:37:21;8.20;;;7.50;;
24813;SDS011;12904;50.088;11.414;2023-07-08T05:39:50;9.13;;;8.23;;
24813;SDS011;12904;50.088;11.414;2023-07-08T05:42:17;8.95;;;7.25;;
24813;SDS011;12904;50.088;11.414;2023-07-08T05:44:43;8.32;;;7.63;;
24813;SDS011;12904;50.088;11.414;2023-07-08T05:47:08;8.18;;;6.88;;
24813;SDS011;12904;50.088;11.414;2023-07-08T05:49:34;8.68;;;6.47;;
24813;SDS011;12904;50.088;11.414;2023-07-08T05:52:00;6.93;;;6.43;;
24813;SDS011;12904;50.088;11.414;2023-07-08T05:54:30;7.72;;;6.97;;
24813;SDS011;12904;50.088;11.414;2023-07-08T05:56:56;9.32;;;6.18;;
24813;SDS011;12904;50.088;11.414;2023-07-08T05:59:22;7.95;;;6.43;;
24813;SDS011;12904;50.088;11.414;2023-07-08T06:01:47;6.55;;;5.95;;
24813;SDS011;12904;50.088;11.414;2023-07-08T06:04:13;6.75;;;6.07;;
24813;SDS011;12904;50.088;11.414;2023-07-08T06:06:38;7.07;;;6.28;;
24813;SDS011;12904;50.088;11.414;2023-07-08T06:09:04;9.52;;;6.13;;
24813;SDS011;12904;50.088;11.414;2023-07-08T06:11:30;6.18;;;5.63;;
24813;SDS011;12904;50.088;11.414;2023-07-08T06:13:55;6.85;;;6.25;;
24813;SDS011;12904;50.088;11.414;2023-07-08T06:16:21;5.75;;;5.25;;
24813;SDS011;12904;50.088;11.414;2023-07-08T06:18:47;7.18;;;4.95;;
24813;SDS011;12904;50.088;11.414;2023-07-08T06:21:13;6.88;;;4.53;;
24813;SDS011;12904;50.088;11.414;2023-07-08T06:23:38;5.80;;;5.30;;
24813;SDS011;12904;50.088;11.414;2023-07-08T06:26:04;5.32;;;4.93;;
24813;SDS011;12904;50.088;11.414;2023-07-08T06:28:29;6.03;;;5.43;;
24813;SDS011;12904;50.088;11.414;2023-07-08T06:30:55;6.32;;;5.18;;
24813;SDS011;12904;50.088;11.414;2023-07-08T06:33:21;8.18;;;5.10;;
24813;SDS011;12904;50.088;11.414;2023-07-08T06:35:46;6.45;;;4.95;;
24813;SDS011;12904;50.088;11.414;2023-07-08T06:38:12;5.20;;;4.80;;
24813;SDS011;12904;50.088;11.414;2023-07-08T06:40:38;5.78;;;5.15;;
24813;SDS011;12904;50.088;11.414;2023-07-08T06:43:03;6.45;;;5.40;;
24813;SDS011;12904;50.088;11.414;2023-07-08T06:45:29;5.68;;;4.78;;
24813;SDS011;12904;50.088;11.414;2023-07-08T06:47:54;4.97;;;4.57;;
24813;SDS011;12904;50.088;11.414;2023-07-08T06:50:20;6.15;;;4.43;;
24813;SDS011;12904;50.088;11.414;2023-07-08T06:52:46;5.43;;;4.93;;
24813;SDS011;12904;50.088;11.414;2023-07-08T06:55:11;5.60;;;4.53;;
24813;SDS011;12904;50.088;11.414;2023-07-08T06:57:38;5.60;;;5.10;;
24813;SDS011;12904;50.088;11.414;2023-07-08T07:00:04;6.95;;;5.05;;
24813;SDS011;12904;50.088;11.414;2023-07-08T07:02:32;4.80;;;4.40;;
24813;SDS011;12904;50.088;11.414;2023-07-08T07:04:58;6.07;;;5.00;;
24813;SDS011;12904;50.088;11.414;2023-07-08T07:07:23;6.78;;;4.97;;
24813;SDS011;12904;50.088;11.414;2023-07-08T07:09:49;5.25;;;4.32;;
24813;SDS011;12904;50.088;11.414;2023-07-08T07:12:15;4.55;;;4.15;;
24813;SDS011;12904;50.088;11.414;2023-07-08T07:14:40;5.72;;;4.95;;
24813;SDS011;12904;50.088;11.414;2023-07-08T07:17:06;5.70;;;5.20;;
24813;SDS011;12904;50.088;11.414;2023-07-08T07:19:31;5.50;;;4.95;;
24813;SDS011;12904;50.088;11.414;2023-07-08T07:21:57;5.43;;;4.93;;
24813;SDS011;12904;50.088;11.414;2023-07-08T07:24:23;7.53;;;4.25;;
24813;SDS011;12904;50.088;11.414;2023-07-08T07:26:48;5.28;;;4.88;;
24813;SDS011;12904;50.088;11.414;2023-07-08T07:29:16;7.47;;;4.88;;
24813;SDS011;12904;50.088;11.414;2023-07-08T07:31:42;6.13;;;4.78;;
24813;SDS011;12904;50.088;11.414;2023-07-08T07:34:09;4.75;;;4.35;;
24813;SDS011;12904;50.088;11.414;2023-07-08T07:36:35;4.53;;;4.05;;
24813;SDS011;12904;50.088;11.414;2023-07-08T07:39:01;4.22;;;3.83;;
24813;SDS011;12904;50.088;11.414;2023-07-08T07:41:26;6.13;;;3.97;;
24813;SDS011;12904;50.088;11.414;2023-07-08T07:43:52;5.45;;;4.22;;
24813;SDS011;12904;50.088;11.414;2023-07-08T07:46:18;4.50;;;4.10;;
24813;SDS011;12904;50.088;11.414;2023-07-08T07:48:43;4.78;;;4.38;;
24813;SDS011;12904;50.088;11.414;2023-07-08T07:51:09;4.13;;;3.83;;
24813;SDS011;12904;50.088;11.414;2023-07-08T07:53:36;5.22;;;4.22;;
24813;SDS011;12904;50.088;11.414;2023-07-08T07:56:03;4.07;;;3.78;;
24813;SDS011;12904;50.088;11.414;2023-07-08T07:58:29;4.25;;;3.80;;
24813;SDS011;12904;50.088;11.414;2023-07-08T08:00:55;4.82;;;3.53;;
24813;SDS011;12904;50.088;11.414;2023-07-08T08:03:21;4.43;;;4.03;;
24813;SDS011;12904;50.088;11.414;2023-07-08T08:05:47;4.43;;;4.03;;
24813;SDS011;12904;50.088;11.414;2023-07-08T08:08:13;4.40;;;4.00;;
24813;SDS011;12904;50.088;11.414;2023-07-08T08:10:40;4.35;;;3.95;;
24813;SDS011;12904;50.088;11.414;2023-07-08T08:13:07;4.45;;;4.05;;
24813;SDS011;12904;50.088;11.414;2023-07-08T08:15:33;4.63;;;3.75;;
24813;SDS011;12904;50.088;11.414;2023-07-08T08:17:59;4.57;;;4.15;;
24813;SDS011;12904;50.088;11.414;2023-07-08T08:20:25;3.83;;;3.47;;
24813;SDS011;12904;50.088;11.414;2023-07-08T08:22:51;4.97;;;3.65;;
24813;SDS011;12904;50.088;11.414;2023-07-08T08:25:18;3.65;;;3.30;;
24813;SDS011;12904;50.088;11.414;2023-07-08T08:27:45;4.22;;;3.83;;
24813;SDS011;12904;50.088;11.414;2023-07-08T08:30:11;4.13;;;3.72;;
24813;SDS011;12904;50.088;11.414;2023-07-08T08:32:37;3.75;;;3.45;;
24813;SDS011;12904;50.088;11.414;2023-07-08T08:35:03;3.60;;;3.30;;
24813;SDS011;12904;50.088;11.414;2023-07-08T08:37:29;3.67;;;3.38;;
24813;SDS011;12904;50.088;11.414;2023-07-08T08:39:55;3.50;;;3.20;;
24813;SDS011;12904;50.088;11.414;2023-07-08T08:42:31;7.90;;;3.17;;
24813;SDS011;12904;50.088;11.414;2023-07-08T08:45:10;4.30;;;3.90;;
24813;SDS011;12904;50.088;11.414;2023-07-08T08:47:44;3.38;;;3.08;;
24813;SDS011;12904;50.088;11.414;2023-07-08T08:52:59;3.30;;;3.00;;
24813;SDS011;12904;50.088;11.414;2023-07-08T08:55:28;3.88;;;3.47;;
24813;SDS011;12904;50.088;11.414;2023-07-08T09:03:16;3.55;;;2.83;;
24813;SDS011;12904;50.088;11.414;2023-07-08T09:11:05;3.95;;;3.03;;
24813;SDS011;12904;50.088;11.414;2023-07-08T09:13:36;3.28;;;2.70;;
24813;SDS011;12904;50.088;11.414;2023-07-08T09:18:41;3.53;;;3.17;;
24813;SDS011;12904;50.088;11.414;2023-07-08T09:21:16;3.20;;;2.90;;
24813;SDS011;12904;50.088;11.414;2023-07-08T09:23:50;3.92;;;3.00;;
24813;SDS011;12904;50.088;11.414;2023-07-08T09:26:18;4.15;;;3.17;;
24813;SDS011;12904;50.088;11.414;2023-07-08T09:28:48;3.30;;;3.00;;
24813;SDS011;12904;50.088;11.414;2023-07-08T09:31:23;4.93;;;3.42;;
24813;SDS011;12904;50.088;11.414;2023-07-08T09:33:54;3.72;;;3.15;;
24813;SDS011;12904;50.088;11.414;2023-07-08T09:36:49;3.33;;;3.03;;
24813;SDS011;12904;50.088;11.414;2023-07-08T09:39:17;4.20;;;2.85;;
24813;SDS011;12904;50.088;11.414;2023-07-08T09:41:46;5.43;;;2.95;;
24813;SDS011;12904;50.088;11.414;2023-07-08T09:46:41;3.20;;;2.90;;
24813;SDS011;12904;50.088;11.414;2023-07-08T09:49:21;4.05;;;2.92;;
24813;SDS011;12904;50.088;11.414;2023-07-08T09:51:49;3.20;;;2.92;;
24813;SDS011;12904;50.088;11.414;2023-07-08T09:54:19;5.05;;;3.03;;
24813;SDS011;12904;50.088;11.414;2023-07-08T09:59:43;3.30;;;2.90;;
24813;SDS011;12904;50.088;11.414;2023-07-08T10:02:54;4.22;;;2.58;;
24813;SDS011;12904;50.088;11.414;2023-07-08T10:05:02;4.55;;;3.17;;
24813;SDS011;12904;50.088;11.414;2023-07-08T10:07:38;3.13;;;2.83;;
24813;SDS011;12904;50.088;11.414;2023-07-08T10:10:06;5.20;;;3.17;;
24813;SDS011;12904;50.088;11.414;2023-07-08T10:12:35;3.80;;;2.97;;
24813;SDS011;12904;50.088;11.414;2023-07-08T10:15:05;3.78;;;2.92;;
24813;SDS011;12904;50.088;11.414;2023-07-08T10:18:02;4.93;;;2.90;;
24813;SDS011;12904;50.088;11.414;2023-07-08T10:20:39;3.33;;;2.53;;
24813;SDS011;12904;50.088;11.414;2023-07-08T10:26:20;3.55;;;3.25;;
24813;SDS011;12904;50.088;11.414;2023-07-08T10:32:01;3.25;;;2.95;;
24813;SDS011;12904;50.088;11.414;2023-07-08T10:34:26;3.42;;;3.13;;
24813;SDS011;12904;50.088;11.414;2023-07-08T10:37:05;4.82;;;3.13;;
24813;SDS011;12904;50.088;11.414;2023-07-08T10:56:04;3.00;;;2.70;;
24813;SDS011;12904;50.088;11.414;2023-07-08T11:01:28;3.38;;;3.00;;
24813;SDS011;12904;50.088;11.414;2023-07-08T11:07:10;7.03;;;3.20;;
24813;SDS011;12904;50.088;11.414;2023-07-08T11:17:49;3.53;;;2.55;;
24813;SDS011;12904;50.088;11.414;2023-07-08T11:20:34;3.30;;;2.60;;
24813;SDS011;12904;50.088;11.414;2023-07-08T11:23:14;2.67;;;2.47;;
24813;SDS011;12904;50.088;11.414;2023-07-08T11:25:44;3.08;;;2.53;;
24813;SDS011;12904;50.088;11.414;2023-07-08T11:28:14;3.58;;;3.20;;
24813;SDS011;12904;50.088;11.414;2023-07-08T11:30:43;2.50;;;2.30;;
24813;SDS011;12904;50.088;11.414;2023-07-08T11:33:12;2.83;;;2.55;;
24813;SDS011;12904;50.088;11.414;2023-07-08T11:35:49;5.70;;;3.13;;
24813;SDS011;12904;50.088;11.414;2023-07-08T11:38:19;3.78;;;2.63;;
24813;SDS011;12904;50.088;11.414;2023-07-08T11:40:56;3.65;;;2.97;;
24813;SDS011;12904;50.088;11.414;2023-07-08T11:46:21;3.42;;;2.90;;
24813;SDS011;12904;50.088;11.414;2023-07-08T11:48:53;2.85;;;2.65;;
24813;SDS011;12904;50.088;11.414;2023-07-08T11:51:26;5.68;;;2.65;;
24813;SDS011;12904;50.088;11.414;2023-07-08T11:56:28;3.08;;;2.72;;
24813;SDS011;12904;50.088;11.414;2023-07-08T11:59:19;3.22;;;2.45;;
24813;SDS011;12904;50.088;11.414;2023-07-08T12:01:47;3.58;;;2.70;;
24813;SDS011;12904;50.088;11.414;2023-07-08T12:04:26;2.80;;;2.60;;
24813;SDS011;12904;50.088;11.414;2023-07-08T12:09:34;2.90;;;2.63;;
24813;SDS011;12904;50.088;11.414;2023-07-08T12:12:03;5.63;;;2.70;;
24813;SDS011;12904;50.088;11.414;2023-07-08T12:14:32;3.10;;;2.80;;
24813;SDS011;12904;50.088;11.414;2023-07-08T12:16:58;2.60;;;2.40;;
24813;SDS011;12904;50.088;11.414;2023-07-08T12:19:25;3.40;;;2.95;;
24813;SDS011;12904;50.088;11.414;2023-07-08T12:21:53;3.63;;;2.27;;
24813;SDS011;12904;50.088;11.414;2023-07-08T12:24:19;4.53;;;2.67;;
24813;SDS011;12904;50.088;11.414;2023-07-08T12:26:51;2.45;;;2.25;;
24813;SDS011;12904;50.088;11.414;2023-07-08T12:29:17;4.00;;;3.33;;
24813;SDS011;12904;50.088;11.414;2023-07-08T12:31:42;3.72;;;2.90;;
24813;SDS011;12904;50.088;11.414;2023-07-08T12:34:12;2.72;;;2.47;;
24813;SDS011;12904;50.088;11.414;2023-07-08T12:36:40;2.72;;;2.42;;
24813;SDS011;12904;50.088;11.414;2023-07-08T12:39:08;3.33;;;2.78;;
24813;SDS011;12904;50.088;11.414;2023-07-08T12:41:39;3.53;;;3.13;;
24813;SDS011;12904;50.088;11.414;2023-07-08T12:44:08;2.80;;;2.60;;
24813;SDS011;12904;50.088;11.414;2023-07-08T12:46:41;3.42;;;2.75;;
24813;SDS011;12904;50.088;11.414;2023-07-08T12:49:07;4.65;;;2.92;;
24813;SDS011;12904;50.088;11.414;2023-07-08T12:51:33;2.88;;;2.58;;
24813;SDS011;12904;50.088;11.414;2023-07-08T12:53:59;2.60;;;2.40;;
24813;SDS011;12904;50.088;11.414;2023-07-08T12:56:25;4.45;;;2.90;;
24813;SDS011;12904;50.088;11.414;2023-07-08T12:58:52;3.60;;;2.45;;
24813;SDS011;12904;50.088;11.414;2023-07-08T13:01:28;2.80;;;2.60;;
24813;SDS011;12904;50.088;11.414;2023-07-08T13:03:58;3.08;;;2.75;;
24813;SDS011;12904;50.088;11.414;2023-07-08T13:06:28;3.25;;;2.47;;
24813;SDS011;12904;50.088;11.414;2023-07-08T13:08:57;2.72;;;2.40;;
24813;SDS011;12904;50.088;11.414;2023-07-08T13:11:28;2.75;;;2.53;;
24813;SDS011;12904;50.088;11.414;2023-07-08T13:13:56;4.05;;;2.45;;
24813;SDS011;12904;50.088;11.414;2023-07-08T13:16:29;3.35;;;3.08;;
24813;SDS011;12904;50.088;11.414;2023-07-08T13:18:57;2.50;;;2.30;;
24813;SDS011;12904;50.088;11.414;2023-07-08T13:21:23;3.65;;;2.67;;
24813;SDS011;12904;50.088;11.414;2023-07-08T13:23:52;2.85;;;2.40;;
24813;SDS011;12904;50.088;11.414;2023-07-08T13:26:23;2.88;;;2.67;;
24813;SDS011;12904;50.088;11.414;2023-07-08T13:28:58;2.70;;;2.40;;
24813;SDS011;12904;50.088;11.414;2023-07-08T13:31:31;4.35;;;2.88;;
24813;SDS011;12904;50.088;11.414;2023-07-08T13:34:02;2.55;;;2.35;;
24813;SDS011;12904;50.088;11.414;2023-07-08T13:36:34;2.80;;;2.60;;
24813;SDS011;12904;50.088;11.414;2023-07-08T13:39:02;3.90;;;3.08;;
24813;SDS011;12904;50.088;11.414;2023-07-08T13:41:32;2.72;;;2.53;;
24813;SDS011;12904;50.088;11.414;2023-07-08T13:44:03;3.88;;;2.80;;
24813;SDS011;12904;50.088;11.414;2023-07-08T13:46:44;2.97;;;2.35;;
24813;SDS011;12904;50.088;11.414;2023-07-08T13:49:29;3.90;;;2.70;;
24813;SDS011;12904;50.088;11.414;2023-07-08T13:54:44;3.28;;;2.65;;
24813;SDS011;12904;50.088;11.414;2023-07-08T13:57:15;3.78;;;2.35;;
24813;SDS011;12904;50.088;11.414;2023-07-08T13:59:43;2.85;;;2.58;;
24813;SDS011;12904;50.088;11.414;2023-07-08T14:02:19;3.35;;;2.83;;
24813;SDS011;12904;50.088;11.414;2023-07-08T14:04:48;2.67;;;2.47;;
24813;SDS011;12904;50.088;11.414;2023-07-08T14:07:16;2.60;;;2.28;;
24813;SDS011;12904;50.088;11.414;2023-07-08T14:09:46;6.03;;;3.00;;
24813;SDS011;12904;50.088;11.414;2023-07-08T14:12:12;2.63;;;2.42;;
24813;SDS011;12904;50.088;11.414;2023-07-08T14:14:38;2.63;;;2.42;;
24813;SDS011;12904;50.088;11.414;2023-07-08T14:17:04;3.45;;;2.38;;
24813;SDS011;12904;50.088;11.414;2023-07-08T14:19:33;2.85;;;2.63;;
24813;SDS011;12904;50.088;11.414;2023-07-08T14:22:01;4.78;;;2.58;;
24813;SDS011;12904;50.088;11.414;2023-07-08T14:24:45;3.10;;;2.58;;
24813;SDS011;12904;50.088;11.414;2023-07-08T14:27:10;3.10;;;2.80;;
24813;SDS011;12904;50.088;11.414;2023-07-08T14:29:40;3.53;;;2.60;;
24813;SDS011;12904;50.088;11.414;2023-07-08T14:32:22;11.43;;;3.25;;
24813;SDS011;12904;50.088;11.414;2023-07-08T14:34:55;4.68;;;2.30;;
24813;SDS011;12904;50.088;11.414;2023-07-08T14:37:23;9.52;;;3.30;;
24813;SDS011;12904;50.088;11.414;2023-07-08T14:39:50;3.47;;;2.50;;
24813;SDS011;12904;50.088;11.414;2023-07-08T14:42:16;6.47;;;2.55;;
24813;SDS011;12904;50.088;11.414;2023-07-08T14:44:50;3.40;;;2.72;;
24813;SDS011;12904;50.088;11.414;2023-07-08T14:47:18;2.90;;;2.55;;
24813;SDS011;12904;50.088;11.414;2023-07-08T14:49:44;2.92;;;2.63;;
24813;SDS011;12904;50.088;11.414;2023-07-08T14:52:11;3.65;;;2.50;;
24813;SDS011;12904;50.088;11.414;2023-07-08T14:54:37;3.08;;;2.67;;
24813;SDS011;12904;50.088;11.414;2023-07-08T14:57:03;6.05;;;2.53;;
24813;SDS011;12904;50.088;11.414;2023-07-08T14:59:31;2.67;;;2.47;;
24813;SDS011;12904;50.088;11.414;2023-07-08T15:02:02;4.10;;;2.70;;
24813;SDS011;12904;50.088;11.414;2023-07-08T15:04:42;3.65;;;2.50;;
24813;SDS011;12904;50.088;11.414;2023-07-08T15:07:08;3.10;;;2.80;;
24813;SDS011;12904;50.088;11.414;2023-07-08T15:09:34;3.80;;;2.60;;
24813;SDS011;12904;50.088;11.414;2023-07-08T15:11:59;2.72;;;2.42;;
24813;SDS011;12904;50.088;11.414;2023-07-08T15:14:25;3.47;;;2.50;;
24813;SDS011;12904;50.088;11.414;2023-07-08T15:16:51;5.18;;;2.50;;
24813;SDS011;12904;50.088;11.414;2023-07-08T15:19:17;2.45;;;2.20;;
24813;SDS011;12904;50.088;11.414;2023-07-08T15:21:44;2.85;;;2.55;;
24813;SDS011;12904;50.088;11.414;2023-07-08T15:24:11;2.88;;;2.33;;
24813;SDS011;12904;50.088;11.414;2023-07-08T15:26:42;3.95;;;2.30;;
24813;SDS011;12904;50.088;11.414;2023-07-08T15:29:12;4.50;;;2.83;;
24813;SDS011;12904;50.088;11.414;2023-07-08T15:31:40;3.03;;;2.72;;
24813;SDS011;12904;50.088;11.414;2023-07-08T15:34:17;3.55;;;2.25;;
24813;SDS011;12904;50.088;11.414;2023-07-08T15:36:44;4.05;;;2.47;;
24813;SDS011;12904;50.088;11.414;2023-07-08T15:39:10;3.17;;;2.17;;
24813;SDS011;12904;50.088;11.414;2023-07-08T15:41:38;2.67;;;2.20;;
24813;SDS011;12904;50.088;11.414;2023-07-08T15:44:06;6.38;;;2.25;;
24813;SDS011;12904;50.088;11.414;2023-07-08T15:46:45;5.55;;;2.50;;
24813;SDS011;12904;50.088;11.414;2023-07-08T15:49:24;2.38;;;1.95;;
24813;SDS011;12904;50.088;11.414;2023-07-08T15:51:55;2.03;;;1.88;;
24813;SDS011;12904;50.088;11.414;2023-07-08T15:54:21;2.67;;;2.47;;
24813;SDS011;12904;50.088;11.414;2023-07-08T15:56:47;4.18;;;2.67;;
24813;SDS011;12904;50.088;11.414;2023-07-08T15:59:17;2.20;;;1.95;;
24813;SDS011;12904;50.088;11.414;2023-07-08T16:01:46;7.25;;;2.33;;